Time;durP1;ratioP1;P1;durP2;ratioP2;P2;SDS_P1;SDS_P2;PMS_P1;PMS_P2;Temp;Humidity;BMP_temperature;BMP_pressure;BME280_temperature;BME280_humidity;BME280_pressure;Samples;Min_cycle;Max_cycle;Signal;HPM_P1;HPM_P2
2023/07/01 00:01:35;;;;;;;3.03;2.80;;;;;;;;;;5079398;28;20459;-70
2023/07/01 00:04:02;;;;;;;24.03;3.57;;;;;;;;;;5061216;28;20493;-70
2023/07/01 00:06:28;;;;;;;8.03;3.63;;;;;;;;;;5067376;28;20444;-70
2023/07/01 00:08:54;;;;;;;10.90;3.07;;;;;;;;;;5068920;28;20434;-70
2023/07/01 00:11:20;;;;;;;3.40;3.00;;;;;;;;;;5078269;28;20441;-70
2023/07/01 00:13:46;;;;;;;15.43;5.13;;;;;;;;;;5077960;28;20568;-71
2023/07/01 00:16:15;;;;;;;4.20;3.87;;;;;;;;;;5060483;28;20449;-71
2023/07/01 00:18:42;;;;;;;8.93;3.50;;;;;;;;;;5068129;28;20460;-70
2023/07/01 00:21:08;;;;;;;11.27;3.07;;;;;;;;;;5074340;28;20445;-70
2023/07/01 00:23:34;;;;;;;10.20;2.97;;;;;;;;;;5079284;28;20424;-70
2023/07/01 00:26:01;;;;;;;8.73;3.07;;;;;;;;;;5074492;28;20933;-71
2023/07/01 00:28:27;;;;;;;8.23;3.13;;;;;;;;;;5058528;28;20418;-70
2023/07/01 00:30:53;;;;;;;7.00;3.23;;;;;;;;;;5063991;28;20436;-70
2023/07/01 00:33:19;;;;;;;10.73;4.13;;;;;;;;;;5077855;28;20515;-70
2023/07/01 00:35:46;;;;;;;4.60;3.30;;;;;;;;;;5078767;28;20570;-70
2023/07/01 00:38:12;;;;;;;19.57;4.03;;;;;;;;;;5077832;28;20498;-69
2023/07/01 00:40:38;;;;;;;7.53;3.20;;;;;;;;;;5078252;28;20837;-69
2023/07/01 00:43:04;;;;;;;3.10;2.87;;;;;;;;;;5076919;28;20452;-70
2023/07/01 00:45:30;;;;;;;14.63;3.20;;;;;;;;;;5078953;28;20429;-70
2023/07/01 00:47:56;;;;;;;7.23;3.37;;;;;;;;;;5066635;28;20487;-70
2023/07/01 00:50:22;;;;;;;17.80;3.53;;;;;;;;;;5078900;28;20471;-70
2023/07/01 00:52:48;;;;;;;6.17;3.80;;;;;;;;;;5079001;28;20847;-70
2023/07/01 00:55:14;;;;;;;5.10;3.63;;;;;;;;;;5094524;28;20518;-69
2023/07/01 00:57:40;;;;;;;3.33;3.10;;;;;;;;;;5078370;28;20883;-70
2023/07/01 01:00:11;;;;;;;7.47;3.27;;;;;;;;;;5078830;28;20425;-70
2023/07/01 01:02:57;;;;;;;3.83;3.33;;;;;;;;;;5081666;28;20844;-70
2023/07/01 01:05:31;;;;;;;6.67;3.90;;;;;;;;;;5055421;28;20435;-71
2023/07/01 01:08:14;;;;;;;12.30;3.50;;;;;;;;;;5095727;28;20411;-70
2023/07/01 01:10:41;;;;;;;4.63;3.40;;;;;;;;;;5082316;28;20469;-70
2023/07/01 01:13:07;;;;;;;9.43;3.70;;;;;;;;;;5082201;28;20432;-70
2023/07/01 01:15:34;;;;;;;12.30;4.20;;;;;;;;;;5095155;28;20480;-71
2023/07/01 01:18:05;;;;;;;3.87;3.43;;;;;;;;;;5095407;28;20405;-70
2023/07/01 01:20:33;;;;;;;5.17;3.37;;;;;;;;;;5090447;28;20479;-70
2023/07/01 01:23:03;;;;;;;9.27;4.03;;;;;;;;;;5093464;28;20440;-70
2023/07/01 01:25:38;;;;;;;12.47;3.40;;;;;;;;;;5094926;28;20835;-70
2023/07/01 01:28:04;;;;;;;5.27;3.30;;;;;;;;;;5079034;28;20539;-70
2023/07/01 01:30:33;;;;;;;15.47;3.60;;;;;;;;;;5075320;28;20424;-70
2023/07/01 01:33:00;;;;;;;15.47;4.13;;;;;;;;;;5084025;28;20437;-70
2023/07/01 01:35:26;;;;;;;13.00;3.30;;;;;;;;;;5085408;28;20487;-70
2023/07/01 01:37:52;;;;;;;13.67;2.97;;;;;;;;;;5094941;28;20427;-70
2023/07/01 01:40:26;;;;;;;10.17;3.30;;;;;;;;;;5094565;28;20932;-70
2023/07/01 01:42:55;;;;;;;5.33;4.00;;;;;;;;;;5094921;28;20186;-70
2023/07/01 01:45:21;;;;;;;3.63;3.53;;;;;;;;;;5089613;28;20579;-71
2023/07/01 01:47:47;;;;;;;9.17;4.20;;;;;;;;;;5087081;28;20453;-71
2023/07/01 01:50:14;;;;;;;10.53;4.43;;;;;;;;;;5062448;28;20478;-70
2023/07/01 01:52:41;;;;;;;19.43;3.90;;;;;;;;;;5040312;28;20438;-71
2023/07/01 01:55:08;;;;;;;6.23;3.53;;;;;;;;;;5074003;28;20477;-70
2023/07/01 01:57:34;;;;;;;9.00;3.43;;;;;;;;;;5071483;28;20800;-70
2023/07/01 02:00:00;;;;;;;4.83;3.80;;;;;;;;;;5070286;28;20433;-71
2023/07/01 02:02:26;;;;;;;10.70;4.00;;;;;;;;;;5074512;28;20414;-70
2023/07/01 02:04:52;;;;;;;4.93;3.37;;;;;;;;;;5074544;28;20421;-70
2023/07/01 02:07:18;;;;;;;6.90;3.17;;;;;;;;;;5073522;28;20437;-70
2023/07/01 02:09:44;;;;;;;4.53;3.60;;;;;;;;;;5067580;28;20429;-70
2023/07/01 02:12:10;;;;;;;8.53;3.33;;;;;;;;;;5074433;28;20430;-71
2023/07/01 02:14:36;;;;;;;4.03;3.83;;;;;;;;;;5068154;28;20490;-70
2023/07/01 02:17:02;;;;;;;4.57;3.40;;;;;;;;;;5063439;28;20442;-71
2023/07/01 02:19:28;;;;;;;4.70;3.67;;;;;;;;;;5054117;28;20450;-71
2023/07/01 02:21:54;;;;;;;5.50;3.70;;;;;;;;;;5044735;28;20430;-70
2023/07/01 02:24:20;;;;;;;16.73;4.57;;;;;;;;;;5074231;28;20776;-70
2023/07/01 02:26:46;;;;;;;10.37;5.60;;;;;;;;;;5071804;28;20437;-71
2023/07/01 02:29:12;;;;;;;8.50;3.60;;;;;;;;;;5072738;28;20448;-72
2023/07/01 02:31:38;;;;;;;18.57;3.93;;;;;;;;;;5056193;28;20917;-71
2023/07/01 02:34:04;;;;;;;6.00;3.83;;;;;;;;;;5067124;28;20488;-70
2023/07/01 02:36:30;;;;;;;16.00;4.13;;;;;;;;;;5070434;28;20539;-71
2023/07/01 02:38:56;;;;;;;12.93;4.20;;;;;;;;;;5072818;28;21010;-70
2023/07/01 02:41:22;;;;;;;4.33;3.17;;;;;;;;;;5073778;28;20464;-71
2023/07/01 02:43:48;;;;;;;8.00;3.20;;;;;;;;;;5058335;28;20438;-70
2023/07/01 02:46:14;;;;;;;7.63;3.57;;;;;;;;;;5058972;28;20425;-71
2023/07/01 02:48:40;;;;;;;6.27;3.73;;;;;;;;;;5070485;28;20484;-70
2023/07/01 02:51:07;;;;;;;4.40;4.00;;;;;;;;;;5073050;28;20481;-71
2023/07/01 02:53:33;;;;;;;3.50;3.30;;;;;;;;;;5073541;28;20410;-70
2023/07/01 02:55:59;;;;;;;6.00;3.63;;;;;;;;;;5073570;28;20432;-70
2023/07/01 02:58:25;;;;;;;4.73;3.40;;;;;;;;;;5070140;28;20430;-70
2023/07/01 03:00:51;;;;;;;9.17;3.33;;;;;;;;;;5056099;28;20456;-70
2023/07/01 03:03:17;;;;;;;9.33;3.40;;;;;;;;;;5053665;28;20427;-71
2023/07/01 03:05:44;;;;;;;9.83;4.30;;;;;;;;;;5053487;28;20473;-70
2023/07/01 03:08:10;;;;;;;9.03;5.03;;;;;;;;;;5035927;28;20442;-71
2023/07/01 03:10:36;;;;;;;19.50;3.60;;;;;;;;;;5036653;28;20426;-71
2023/07/01 03:13:02;;;;;;;9.00;4.33;;;;;;;;;;5067317;28;20502;-71
2023/07/01 03:15:28;;;;;;;23.40;4.10;;;;;;;;;;5072993;28;20483;-70
2023/07/01 03:17:54;;;;;;;5.60;4.20;;;;;;;;;;5069890;28;20526;-71
2023/07/01 03:20:22;;;;;;;12.97;4.30;;;;;;;;;;5072738;28;20547;-70
2023/07/01 03:22:58;;;;;;;12.70;4.40;;;;;;;;;;5070885;28;20422;-70
2023/07/01 03:25:24;;;;;;;4.73;3.20;;;;;;;;;;5073073;28;20417;-70
2023/07/01 03:27:50;;;;;;;8.47;3.57;;;;;;;;;;5071189;28;20429;-70
2023/07/01 03:30:17;;;;;;;9.30;4.67;;;;;;;;;;5072078;28;20513;-71
2023/07/01 03:32:44;;;;;;;15.37;4.27;;;;;;;;;;5072515;28;20865;-70
2023/07/01 03:35:13;;;;;;;4.63;3.50;;;;;;;;;;5072251;28;20568;-70
2023/07/01 03:37:40;;;;;;;6.33;3.70;;;;;;;;;;5070047;28;20930;-70
2023/07/01 03:40:10;;;;;;;4.73;3.70;;;;;;;;;;5070859;28;20455;-71
2023/07/01 03:42:37;;;;;;;7.00;3.70;;;;;;;;;;5066439;28;20442;-70
2023/07/01 03:45:04;;;;;;;6.33;3.43;;;;;;;;;;5052128;28;20442;-70
2023/07/01 03:47:30;;;;;;;7.93;3.07;;;;;;;;;;5072422;28;20897;-71
2023/07/01 03:49:56;;;;;;;14.03;3.97;;;;;;;;;;5089527;28;20611;-70
2023/07/01 03:52:22;;;;;;;7.30;3.97;;;;;;;;;;5092763;28;20428;-71
2023/07/01 03:54:48;;;;;;;7.10;3.43;;;;;;;;;;5091642;28;20460;-70
2023/07/01 03:57:14;;;;;;;5.67;3.60;;;;;;;;;;5091749;28;20436;-70
2023/07/01 03:59:40;;;;;;;7.67;3.93;;;;;;;;;;5076126;28;20448;-70
2023/07/01 04:02:06;;;;;;;6.23;3.33;;;;;;;;;;5077894;28;20435;-70
2023/07/01 04:04:32;;;;;;;3.27;2.90;;;;;;;;;;5083217;28;20445;-71
2023/07/01 04:06:58;;;;;;;8.37;4.17;;;;;;;;;;5088104;28;20419;-71
2023/07/01 04:09:24;;;;;;;9.90;3.20;;;;;;;;;;5092504;28;20412;-70
2023/07/01 04:11:51;;;;;;;3.60;3.40;;;;;;;;;;5072583;28;20409;-69
2023/07/01 04:14:17;;;;;;;4.20;3.30;;;;;;;;;;5071083;28;20483;-70
2023/07/01 04:16:44;;;;;;;8.53;3.37;;;;;;;;;;5075644;28;20504;-70
2023/07/01 04:19:10;;;;;;;3.07;2.97;;;;;;;;;;5071033;28;20887;-70
2023/07/01 04:21:36;;;;;;;9.90;3.53;;;;;;;;;;5088182;28;20436;-70
2023/07/01 04:24:04;;;;;;;4.37;3.13;;;;;;;;;;5092616;28;20417;-70
2023/07/01 04:26:30;;;;;;;2.40;2.40;;;;;;;;;;5092718;28;20449;-71
2023/07/01 04:28:56;;;;;;;4.43;2.37;;;;;;;;;;5087163;28;20475;-70
2023/07/01 04:31:22;;;;;;;3.80;3.50;;;;;;;;;;5081117;28;20480;-70
2023/07/01 04:33:48;;;;;;;6.60;2.90;;;;;;;;;;5072384;28;20462;-71
2023/07/01 04:36:14;;;;;;;4.40;2.47;;;;;;;;;;5089368;28;20449;-71
2023/07/01 04:38:40;;;;;;;10.50;2.57;;;;;;;;;;5091624;28;20436;-70
2023/07/01 04:41:06;;;;;;;5.27;3.30;;;;;;;;;;5087726;28;20453;-70
2023/07/01 04:43:33;;;;;;;3.60;2.57;;;;;;;;;;5088780;28;20436;-71
2023/07/01 04:46:00;;;;;;;15.67;2.10;;;;;;;;;;5096443;28;20424;-70
2023/07/01 04:48:26;;;;;;;2.40;2.13;;;;;;;;;;5094444;28;20565;-69
2023/07/01 04:50:53;;;;;;;7.93;2.70;;;;;;;;;;5078009;28;20957;-68
2023/07/01 04:53:18;;;;;;;9.83;2.57;;;;;;;;;;5078766;28;20455;-72
2023/07/01 04:55:44;;;;;;;4.50;2.30;;;;;;;;;;5078001;28;20551;-70
2023/07/01 04:58:10;;;;;;;18.50;3.80;;;;;;;;;;5085451;28;20827;-72
2023/07/01 05:00:37;;;;;;;7.23;2.90;;;;;;;;;;5075502;28;20474;-72
2023/07/01 05:03:04;;;;;;;2.73;2.53;;;;;;;;;;5095026;28;20606;-70
2023/07/01 05:05:30;;;;;;;1.53;1.53;;;;;;;;;;5084217;28;20436;-69
2023/07/01 05:07:56;;;;;;;3.20;2.80;;;;;;;;;;5082522;28;20493;-67
2023/07/01 05:10:22;;;;;;;2.57;2.27;;;;;;;;;;5095648;28;20943;-67
2023/07/01 05:12:48;;;;;;;3.70;2.50;;;;;;;;;;5092527;28;20439;-71
2023/07/01 05:15:15;;;;;;;11.00;2.07;;;;;;;;;;5083248;28;20488;-71
2023/07/01 05:17:41;;;;;;;5.37;2.00;;;;;;;;;;5082747;28;20426;-71
2023/07/01 05:20:08;;;;;;;3.50;1.90;;;;;;;;;;5086097;28;20807;-72
2023/07/01 05:22:34;;;;;;;2.60;1.90;;;;;;;;;;5086679;28;20918;-66
2023/07/01 05:25:00;;;;;;;1.73;1.67;;;;;;;;;;5076697;28;20516;-67
2023/07/01 05:27:26;;;;;;;2.00;1.90;;;;;;;;;;5092674;28;20408;-68
2023/07/01 05:29:52;;;;;;;5.33;1.90;;;;;;;;;;5095600;28;20924;-71
2023/07/01 05:32:18;;;;;;;1.50;1.10;;;;;;;;;;5090450;28;20432;-69
2023/07/01 05:34:44;;;;;;;1.57;1.57;;;;;;;;;;5090746;28;21057;-67
2023/07/01 05:37:10;;;;;;;2.67;1.40;;;;;;;;;;5094504;28;20525;-69
2023/07/01 05:39:37;;;;;;;2.07;1.60;;;;;;;;;;5089953;28;20467;-71
2023/07/01 05:42:04;;;;;;;4.73;1.57;;;;;;;;;;5074632;28;20429;-65
2023/07/01 05:44:30;;;;;;;6.90;1.97;;;;;;;;;;5074866;28;20453;-66
2023/07/01 05:46:56;;;;;;;1.87;1.70;;;;;;;;;;5075158;28;20518;-67
2023/07/01 05:49:22;;;;;;;3.33;3.13;;;;;;;;;;5074638;28;20501;-66
2023/07/01 05:51:48;;;;;;;1.50;1.50;;;;;;;;;;5093822;28;20433;-70
2023/07/01 05:54:14;;;;;;;1.50;1.17;;;;;;;;;;5077979;28;20969;-68
2023/07/01 05:56:40;;;;;;;5.03;1.87;;;;;;;;;;5090577;28;20489;-68
2023/07/01 05:59:06;;;;;;;5.73;1.90;;;;;;;;;;5094309;28;20425;-68
2023/07/01 06:01:32;;;;;;;1.20;1.20;;;;;;;;;;5086585;28;20849;-67
2023/07/01 06:03:58;;;;;;;1.20;1.20;;;;;;;;;;5091907;28;20534;-67
2023/07/01 06:06:24;;;;;;;3.23;1.10;;;;;;;;;;5085337;28;20425;-67
2023/07/01 06:08:50;;;;;;;1.23;1.23;;;;;;;;;;5093277;28;20904;-66
2023/07/01 06:11:16;;;;;;;3.53;1.40;;;;;;;;;;5078170;28;20488;-66
2023/07/01 06:13:46;;;;;;;4.37;1.33;;;;;;;;;;5085870;28;20475;-66
2023/07/01 06:16:12;;;;;;;6.17;1.30;;;;;;;;;;5094615;28;20425;-66
2023/07/01 06:18:38;;;;;;;3.40;1.30;;;;;;;;;;5094378;28;20435;-67
2023/07/01 06:21:06;;;;;;;2.70;1.40;;;;;;;;;;5090778;28;20456;-66
2023/07/01 06:23:33;;;;;;;2.83;1.87;;;;;;;;;;5092437;28;20452;-67
2023/07/01 06:25:59;;;;;;;4.50;1.60;;;;;;;;;;5094472;28;20420;-68
2023/07/01 06:28:25;;;;;;;2.53;1.20;;;;;;;;;;5093272;28;20772;-66
2023/07/01 06:30:51;;;;;;;1.40;1.30;;;;;;;;;;5094262;28;20519;-68
2023/07/01 06:33:17;;;;;;;6.27;1.10;;;;;;;;;;5091959;28;20433;-66
2023/07/01 06:35:43;;;;;;;3.83;2.20;;;;;;;;;;5091333;28;20468;-69
2023/07/01 06:38:09;;;;;;;2.30;1.30;;;;;;;;;;5093860;28;20416;-66
2023/07/01 06:40:35;;;;;;;7.80;3.00;;;;;;;;;;5094266;28;20416;-69
2023/07/01 06:43:02;;;;;;;2.37;2.17;;;;;;;;;;5092905;28;20531;-72
2023/07/01 06:45:29;;;;;;;4.67;1.80;;;;;;;;;;5090616;28;20437;-67
2023/07/01 06:47:55;;;;;;;1.30;1.20;;;;;;;;;;5090220;28;20948;-66
2023/07/01 06:50:21;;;;;;;2.33;1.67;;;;;;;;;;5072664;28;20441;-66
2023/07/01 06:52:47;;;;;;;5.13;2.40;;;;;;;;;;5073051;28;20416;-68
2023/07/01 06:55:13;;;;;;;1.67;1.30;;;;;;;;;;5071580;28;20488;-69
2023/07/01 06:57:40;;;;;;;2.23;1.57;;;;;;;;;;5069529;28;20495;-70
2023/07/01 07:00:06;;;;;;;1.30;1.30;;;;;;;;;;5060804;28;20437;-70
2023/07/01 07:02:32;;;;;;;5.43;1.90;;;;;;;;;;5038518;28;20442;-69
2023/07/01 07:04:58;;;;;;;2.57;1.47;;;;;;;;;;5071349;28;20422;-67
2023/07/01 07:07:24;;;;;;;2.90;1.63;;;;;;;;;;5054287;28;20437;-70
2023/07/01 07:09:50;;;;;;;1.43;1.37;;;;;;;;;;5068506;28;20439;-69
2023/07/01 07:12:16;;;;;;;2.40;1.40;;;;;;;;;;5068152;28;20465;-69
2023/07/01 07:14:42;;;;;;;2.20;1.90;;;;;;;;;;5069784;28;20549;-70
2023/07/01 07:17:08;;;;;;;2.63;1.57;;;;;;;;;;5054166;28;20430;-69
2023/07/01 07:19:34;;;;;;;1.07;1.07;;;;;;;;;;5035505;28;20571;-70
2023/07/01 07:22:00;;;;;;;1.67;1.57;;;;;;;;;;5063703;28;20438;-69
2023/07/01 07:24:26;;;;;;;22.43;2.40;;;;;;;;;;5059928;28;20441;-70
2023/07/01 07:26:57;;;;;;;2.80;1.80;;;;;;;;;;5056105;28;20452;-65
2023/07/01 07:29:24;;;;;;;1.70;1.40;;;;;;;;;;5046566;28;20438;-65
2023/07/01 07:31:50;;;;;;;6.00;1.80;;;;;;;;;;5060461;28;20569;-65
2023/07/01 07:34:16;;;;;;;1.70;1.60;;;;;;;;;;5054373;28;20561;-66
2023/07/01 07:36:42;;;;;;;1.33;1.33;;;;;;;;;;5068278;28;20441;-68
2023/07/01 07:39:10;;;;;;;1.37;1.17;;;;;;;;;;5070110;28;20441;-68
2023/07/01 07:41:36;;;;;;;5.47;1.47;;;;;;;;;;5065719;28;20558;-70
2023/07/01 07:44:02;;;;;;;3.93;1.43;;;;;;;;;;5040618;28;20976;-70
2023/07/01 07:46:27;;;;;;;1.23;1.23;;;;;;;;;;5058977;28;20795;-69
2023/07/01 07:48:53;;;;;;;8.37;1.67;;;;;;;;;;5069440;28;20457;-70
2023/07/01 07:51:19;;;;;;;2.83;1.67;;;;;;;;;;5066885;28;20445;-69
2023/07/01 07:53:45;;;;;;;3.13;1.60;;;;;;;;;;5058632;28;20509;-69
2023/07/01 07:56:11;;;;;;;4.50;1.10;;;;;;;;;;5071870;28;20457;-69
2023/07/01 07:58:37;;;;;;;1.20;1.20;;;;;;;;;;5068976;28;20472;-69
2023/07/01 08:01:03;;;;;;;2.10;1.90;;;;;;;;;;5059250;28;20498;-69
2023/07/01 08:03:29;;;;;;;2.97;1.80;;;;;;;;;;5048538;28;20472;-70
2023/07/01 08:05:55;;;;;;;3.70;2.10;;;;;;;;;;5066615;28;20445;-69
2023/07/01 08:08:21;;;;;;;5.20;2.17;;;;;;;;;;5066302;28;20452;-69
2023/07/01 08:10:47;;;;;;;3.80;1.70;;;;;;;;;;5065821;28;20941;-69
2023/07/01 08:13:14;;;;;;;16.03;2.67;;;;;;;;;;5067752;28;20491;-69
2023/07/01 08:15:41;;;;;;;1.93;1.63;;;;;;;;;;5058247;28;20535;-70
2023/07/01 08:18:07;;;;;;;5.90;1.50;;;;;;;;;;5052739;28;20449;-68
2023/07/01 08:20:33;;;;;;;5.80;1.40;;;;;;;;;;5056981;28;20445;-70
2023/07/01 08:22:59;;;;;;;2.30;1.30;;;;;;;;;;5061251;28;20506;-70
2023/07/01 08:25:25;;;;;;;1.60;1.50;;;;;;;;;;5066410;28;20453;-70
2023/07/01 08:27:51;;;;;;;2.00;1.63;;;;;;;;;;5066206;28;20486;-70
2023/07/01 08:30:17;;;;;;;1.50;1.40;;;;;;;;;;5058463;28;20456;-69
2023/07/01 08:32:43;;;;;;;2.87;1.70;;;;;;;;;;5071904;28;20956;-69
2023/07/01 08:35:09;;;;;;;2.63;1.30;;;;;;;;;;5044775;28;21254;-67
2023/07/01 08:37:35;;;;;;;3.17;1.33;;;;;;;;;;5066685;28;20448;-68
2023/07/01 08:40:02;;;;;;;4.77;1.83;;;;;;;;;;5066891;28;20437;-68
2023/07/01 08:42:35;;;;;;;5.50;3.50;;;;;;;;;;5067312;28;20880;-68
2023/07/01 08:45:01;;;;;;;4.77;4.57;;;;;;;;;;5065075;28;20453;-68
2023/07/01 08:47:27;;;;;;;1.90;1.70;;;;;;;;;;5052911;28;20452;-68
2023/07/01 08:49:55;;;;;;;1.03;1.03;;;;;;;;;;5079900;28;20478;-68
2023/07/01 08:52:22;;;;;;;1.50;1.23;;;;;;;;;;5088432;28;20432;-68
2023/07/01 08:54:49;;;;;;;3.43;1.87;;;;;;;;;;5091149;28;20846;-68
2023/07/01 08:57:15;;;;;;;10.30;1.50;;;;;;;;;;5088264;28;20432;-68
2023/07/01 08:59:43;;;;;;;2.50;1.60;;;;;;;;;;5087237;28;20456;-68
2023/07/01 09:02:09;;;;;;;1.50;1.50;;;;;;;;;;5079282;28;20436;-69
2023/07/01 09:04:37;;;;;;;3.30;1.43;;;;;;;;;;5075201;28;20498;-69
2023/07/01 09:07:05;;;;;;;3.10;1.90;;;;;;;;;;5081135;28;20428;-70
2023/07/01 09:09:31;;;;;;;1.73;1.50;;;;;;;;;;5095142;28;20416;-70
2023/07/01 09:11:57;;;;;;;1.53;1.53;;;;;;;;;;5094993;28;20770;-69
2023/07/01 09:14:23;;;;;;;1.53;1.43;;;;;;;;;;5082639;28;20468;-70
2023/07/01 09:16:49;;;;;;;6.97;3.40;;;;;;;;;;5090800;28;20428;-69
2023/07/01 09:19:16;;;;;;;4.10;2.00;;;;;;;;;;5091246;28;20924;-70
2023/07/01 09:21:43;;;;;;;9.33;1.53;;;;;;;;;;5086244;28;20426;-70
2023/07/01 09:24:10;;;;;;;1.67;1.33;;;;;;;;;;5086902;28;20413;-70
2023/07/01 09:26:36;;;;;;;4.73;1.43;;;;;;;;;;5081647;28;20475;-69
2023/07/01 09:29:28;;;;;;;2.07;1.97;;;;;;;;;;5074445;28;20417;-71
2023/07/01 09:31:54;;;;;;;2.50;1.97;;;;;;;;;;5071104;28;20779;-69
2023/07/01 09:34:21;;;;;;;3.90;2.10;;;;;;;;;;5079568;28;20676;-70
2023/07/01 09:36:47;;;;;;;5.50;2.10;;;;;;;;;;5080138;28;20195;-69
2023/07/01 09:39:13;;;;;;;2.83;2.50;;;;;;;;;;5074748;28;20814;-69
2023/07/01 09:41:39;;;;;;;1.63;1.63;;;;;;;;;;5081063;28;20962;-70
2023/07/01 09:44:16;;;;;;;2.93;2.17;;;;;;;;;;5094732;28;20467;-70
2023/07/01 09:46:42;;;;;;;2.50;1.37;;;;;;;;;;5085653;28;20439;-70
2023/07/01 09:49:08;;;;;;;1.57;1.47;;;;;;;;;;5076478;28;20454;-70
2023/07/01 09:51:45;;;;;;;2.10;1.93;;;;;;;;;;5074843;28;20421;-70
2023/07/01 09:54:30;;;;;;;2.20;1.47;;;;;;;;;;5065913;28;20930;-70
2023/07/01 09:56:57;;;;;;;1.97;1.83;;;;;;;;;;5053699;28;20945;-70
2023/07/01 09:59:23;;;;;;;2.03;1.93;;;;;;;;;;5057024;28;20414;-71
2023/07/01 10:01:50;;;;;;;2.43;2.27;;;;;;;;;;5066319;28;20856;-70
2023/07/01 10:04:21;;;;;;;2.43;2.10;;;;;;;;;;5060022;28;20841;-70
2023/07/01 10:06:47;;;;;;;3.90;1.70;;;;;;;;;;5057803;28;20845;-70
2023/07/01 10:09:13;;;;;;;2.60;1.70;;;;;;;;;;5054589;28;20596;-69
2023/07/01 10:11:39;;;;;;;2.27;1.50;;;;;;;;;;5053740;28;20419;-70
2023/07/01 10:14:06;;;;;;;2.63;2.40;;;;;;;;;;5037054;28;20474;-70
2023/07/01 10:16:33;;;;;;;2.43;2.33;;;;;;;;;;5062394;28;20433;-71
2023/07/01 10:19:00;;;;;;;8.43;2.87;;;;;;;;;;5074128;28;20425;-70
2023/07/01 10:21:30;;;;;;;2.27;2.17;;;;;;;;;;5057724;28;20441;-70
2023/07/01 10:24:00;;;;;;;1.60;1.60;;;;;;;;;;5053952;28;20782;-70
2023/07/01 10:26:35;;;;;;;4.07;3.50;;;;;;;;;;5053196;28;20430;-70
2023/07/01 10:29:20;;;;;;;5.20;4.80;;;;;;;;;;5055017;28;20521;-70
2023/07/01 10:32:05;;;;;;;2.33;2.23;;;;;;;;;;5049454;28;20428;-70
2023/07/01 10:34:49;;;;;;;2.13;1.90;;;;;;;;;;5073349;28;20481;-69
2023/07/01 10:37:16;;;;;;;1.60;1.60;;;;;;;;;;5073347;28;20410;-69
2023/07/01 10:39:42;;;;;;;1.47;1.47;;;;;;;;;;5073317;28;20822;-70
2023/07/01 10:42:10;;;;;;;4.30;1.73;;;;;;;;;;5070974;28;20417;-70
2023/07/01 10:44:36;;;;;;;1.97;1.87;;;;;;;;;;5070599;28;20766;-69
2023/07/01 10:47:13;;;;;;;2.73;1.80;;;;;;;;;;5052845;28;20918;-69
2023/07/01 10:49:59;;;;;;;1.80;1.70;;;;;;;;;;5053608;28;20832;-69
2023/07/01 10:52:25;;;;;;;9.20;2.03;;;;;;;;;;5053427;28;20414;-69
2023/07/01 10:54:51;;;;;;;1.33;1.10;;;;;;;;;;5052986;28;20481;-70
2023/07/01 10:57:18;;;;;;;2.20;1.80;;;;;;;;;;5052830;28;20434;-69
2023/07/01 10:59:44;;;;;;;1.53;1.43;;;;;;;;;;5058768;28;20795;-69
2023/07/01 11:02:11;;;;;;;2.00;1.63;;;;;;;;;;5071517;28;20426;-69
2023/07/01 11:04:53;;;;;;;1.80;1.33;;;;;;;;;;5071383;28;20492;-69
2023/07/01 11:07:26;;;;;;;1.77;1.63;;;;;;;;;;5072875;28;20815;-69
2023/07/01 11:09:52;;;;;;;3.60;1.37;;;;;;;;;;5073027;28;20446;-70
2023/07/01 11:12:18;;;;;;;1.30;1.23;;;;;;;;;;5067634;28;20430;-70
2023/07/01 11:14:45;;;;;;;1.10;1.10;;;;;;;;;;5057820;28;20531;-70
2023/07/01 11:17:14;;;;;;;2.10;1.20;;;;;;;;;;5072878;28;20417;-70
2023/07/01 11:19:40;;;;;;;2.50;1.30;;;;;;;;;;5073033;28;20413;-69
2023/07/01 11:22:10;;;;;;;6.00;1.40;;;;;;;;;;5071544;28;20414;-70
2023/07/01 11:24:36;;;;;;;1.57;1.50;;;;;;;;;;5069828;28;20448;-69
2023/07/01 11:27:03;;;;;;;23.00;1.83;;;;;;;;;;5054349;28;20433;-69
2023/07/01 11:29:30;;;;;;;5.90;1.50;;;;;;;;;;5072496;28;20476;-69
2023/07/01 11:32:00;;;;;;;3.30;1.20;;;;;;;;;;5070600;28;20437;-69
2023/07/01 11:34:26;;;;;;;1.33;1.00;;;;;;;;;;5072261;28;20484;-69
2023/07/01 11:36:52;;;;;;;4.17;2.10;;;;;;;;;;5054565;28;20414;-69
2023/07/01 11:39:19;;;;;;;2.00;1.03;;;;;;;;;;5073118;28;20479;-69
2023/07/01 11:41:47;;;;;;;1.53;1.53;;;;;;;;;;5061910;28;21321;-69
2023/07/01 11:44:14;;;;;;;1.30;1.20;;;;;;;;;;5057256;28;20479;-69
2023/07/01 11:46:41;;;;;;;2.43;1.17;;;;;;;;;;5064835;28;20439;-69
2023/07/01 11:49:26;;;;;;;8.23;2.77;;;;;;;;;;5065227;28;20465;-69
2023/07/01 11:52:02;;;;;;;1.53;1.10;;;;;;;;;;5072688;28;20405;-69
2023/07/01 11:54:39;;;;;;;1.00;1.00;;;;;;;;;;5072754;28;20514;-69
2023/07/01 11:57:08;;;;;;;2.77;1.77;;;;;;;;;;5075199;28;20441;-70
2023/07/01 11:59:35;;;;;;;0.87;0.87;;;;;;;;;;5090250;28;20848;-69
2023/07/01 12:02:01;;;;;;;1.00;1.00;;;;;;;;;;5083620;28;20523;-69
2023/07/01 12:04:28;;;;;;;8.37;1.03;;;;;;;;;;5093245;28;20419;-70
2023/07/01 12:07:10;;;;;;;8.07;1.70;;;;;;;;;;5074486;28;20421;-69
2023/07/01 12:09:37;;;;;;;1.00;0.90;;;;;;;;;;5072662;28;20424;-70
2023/07/01 12:12:03;;;;;;;1.03;1.00;;;;;;;;;;5083121;28;20424;-70
2023/07/01 12:14:29;;;;;;;1.33;1.33;;;;;;;;;;5092229;28;20472;-70
2023/07/01 12:16:56;;;;;;;6.77;1.07;;;;;;;;;;5092453;28;20855;-70
2023/07/01 12:19:23;;;;;;;14.23;3.37;;;;;;;;;;5091428;28;20420;-70
2023/07/01 12:21:50;;;;;;;1.30;1.30;;;;;;;;;;5072599;28;20426;-69
2023/07/01 12:24:17;;;;;;;1.40;1.40;;;;;;;;;;5072593;28;20425;-70
2023/07/01 12:26:43;;;;;;;5.90;1.67;;;;;;;;;;5078335;28;20440;-70
2023/07/01 12:29:09;;;;;;;2.60;1.20;;;;;;;;;;5090883;28;20424;-70
2023/07/01 12:31:35;;;;;;;0.90;0.90;;;;;;;;;;5092827;28;20432;-70
2023/07/01 12:34:01;;;;;;;3.80;1.57;;;;;;;;;;5092614;28;20460;-70
2023/07/01 12:36:27;;;;;;;3.90;1.33;;;;;;;;;;5089341;28;20439;-70
2023/07/01 12:38:53;;;;;;;5.40;1.33;;;;;;;;;;5092635;28;20830;-70
2023/07/01 12:41:19;;;;;;;1.53;1.40;;;;;;;;;;5092184;28;20468;-70
2023/07/01 12:43:47;;;;;;;0.90;0.90;;;;;;;;;;5076390;28;20450;-71
2023/07/01 12:46:14;;;;;;;17.57;2.00;;;;;;;;;;5078911;28;20504;-70
2023/07/01 12:48:44;;;;;;;8.30;2.17;;;;;;;;;;5074183;28;20493;-70
2023/07/01 12:51:10;;;;;;;4.93;1.50;;;;;;;;;;5072159;28;20425;-70
2023/07/01 12:53:36;;;;;;;1.90;1.27;;;;;;;;;;5055457;28;20430;-70
2023/07/01 12:56:01;;;;;;;1.73;1.60;;;;;;;;;;5051432;28;20484;-71
2023/07/01 12:58:27;;;;;;;2.67;1.50;;;;;;;;;;5052212;28;20414;-71
2023/07/01 13:00:53;;;;;;;1.20;1.10;;;;;;;;;;5034178;28;20437;-70
2023/07/01 13:03:19;;;;;;;1.30;1.13;;;;;;;;;;5053351;28;20997;-70
2023/07/01 13:05:45;;;;;;;1.43;1.33;;;;;;;;;;5055423;28;20749;-70
2023/07/01 13:08:12;;;;;;;1.60;1.50;;;;;;;;;;5065465;28;20429;-70
2023/07/01 13:10:41;;;;;;;1.30;1.30;;;;;;;;;;5075420;28;20421;-70
2023/07/01 13:13:07;;;;;;;8.47;1.90;;;;;;;;;;5069226;28;20433;-70
2023/07/01 13:15:34;;;;;;;1.70;1.37;;;;;;;;;;5065581;28;20496;-70
2023/07/01 13:18:00;;;;;;;1.73;1.73;;;;;;;;;;5036823;28;20564;-70
2023/07/01 13:20:27;;;;;;;3.03;1.20;;;;;;;;;;5055541;28;20468;-70
2023/07/01 13:22:57;;;;;;;1.17;1.17;;;;;;;;;;5056155;28;20419;-70
2023/07/01 13:25:24;;;;;;;2.10;1.57;;;;;;;;;;5061155;28;20430;-70
2023/07/01 13:27:53;;;;;;;4.33;1.60;;;;;;;;;;5066656;28;20434;-70
2023/07/01 13:30:28;;;;;;;3.60;1.63;;;;;;;;;;5065973;28;20427;-70
2023/07/01 13:32:54;;;;;;;1.30;1.30;;;;;;;;;;5074421;28;20417;-70
2023/07/01 13:35:21;;;;;;;2.03;1.40;;;;;;;;;;5074553;28;20461;-70
2023/07/01 13:37:47;;;;;;;1.50;1.00;;;;;;;;;;5074462;28;20864;-70
2023/07/01 13:40:15;;;;;;;3.80;1.37;;;;;;;;;;5074958;28;20430;-70
2023/07/01 13:42:42;;;;;;;2.13;1.60;;;;;;;;;;5071848;28;20880;-70
2023/07/01 13:45:18;;;;;;;3.17;1.80;;;;;;;;;;5073967;28;20465;-71
2023/07/01 13:47:49;;;;;;;1.50;1.40;;;;;;;;;;5067554;28;20415;-71
2023/07/01 13:50:18;;;;;;;2.60;1.60;;;;;;;;;;5054917;28;20488;-71
2023/07/01 13:52:44;;;;;;;4.13;1.40;;;;;;;;;;5036660;28;21085;-70
2023/07/01 13:55:11;;;;;;;1.17;1.10;;;;;;;;;;5054442;28;20899;-70
2023/07/01 13:57:37;;;;;;;2.03;2.03;;;;;;;;;;5057721;28;20430;-70
2023/07/01 14:00:08;;;;;;;1.43;1.43;;;;;;;;;;5073613;28;20448;-70
2023/07/01 14:02:38;;;;;;;1.23;1.13;;;;;;;;;;5074433;28;20482;-70
2023/07/01 14:05:05;;;;;;;1.53;1.53;;;;;;;;;;5074445;28;20922;-70
2023/07/01 14:07:33;;;;;;;1.90;1.17;;;;;;;;;;5074428;28;20410;-70
2023/07/01 14:09:59;;;;;;;1.53;1.43;;;;;;;;;;5073299;28;20428;-70
2023/07/01 14:12:25;;;;;;;3.43;1.77;;;;;;;;;;5072795;28;20422;-70
2023/07/01 14:14:51;;;;;;;1.97;1.30;;;;;;;;;;5063667;28;20477;-70
2023/07/01 14:17:20;;;;;;;1.90;1.20;;;;;;;;;;5072780;28;20875;-70
2023/07/01 14:19:52;;;;;;;10.53;1.40;;;;;;;;;;5070244;28;20902;-70
2023/07/01 14:22:18;;;;;;;1.37;1.27;;;;;;;;;;5045374;28;20480;-71
2023/07/01 14:24:47;;;;;;;1.30;1.30;;;;;;;;;;5067879;28;20462;-70
2023/07/01 14:27:20;;;;;;;2.10;1.23;;;;;;;;;;5039611;28;20441;-70
2023/07/01 14:29:46;;;;;;;4.47;1.50;;;;;;;;;;5073947;28;20417;-71
2023/07/01 14:32:12;;;;;;;1.43;1.23;;;;;;;;;;5061888;28;20456;-71
2023/07/01 14:34:42;;;;;;;1.30;1.30;;;;;;;;;;5071447;28;20481;-70
2023/07/01 14:37:08;;;;;;;2.37;2.17;;;;;;;;;;5063268;28;20420;-70
2023/07/01 14:39:53;;;;;;;1.80;1.70;;;;;;;;;;5062831;28;20436;-71
2023/07/01 14:42:27;;;;;;;2.93;1.40;;;;;;;;;;5073470;28;20456;-70